sensor_id;sensor_type;location;lat;lon;timestamp;P1;durP1;ratioP1;P2;durP2;ratioP2
40863;SDS011;26582;47.524;19.012;2023-12-20T00:00:41;40.13;;;17.08;;
40863;SDS011;26582;47.524;19.012;2023-12-20T00:03:07;41.65;;;15.95;;
40863;SDS011;26582;47.524;19.012;2023-12-20T00:05:34;41.08;;;17.10;;
40863;SDS011;26582;47.524;19.012;2023-12-20T00:08:03;46.95;;;17.58;;
40863;SDS011;26582;47.524;19.012;2023-12-20T00:10:30;42.53;;;16.20;;
40863;SDS011;26582;47.524;19.012;2023-12-20T00:12:57;42.70;;;17.10;;
40863;SDS011;26582;47.524;19.012;2023-12-20T00:15:24;43.70;;;16.98;;
40863;SDS011;26582;47.524;19.012;2023-12-20T00:17:52;39.08;;;15.45;;
40863;SDS011;26582;47.524;19.012;2023-12-20T00:20:18;44.05;;;16.38;;
40863;SDS011;26582;47.524;19.012;2023-12-20T00:22:45;40.28;;;16.77;;
40863;SDS011;26582;47.524;19.012;2023-12-20T00:25:12;40.92;;;16.13;;
40863;SDS011;26582;47.524;19.012;2023-12-20T00:27:39;48.60;;;16.42;;
40863;SDS011;26582;47.524;19.012;2023-12-20T00:30:06;40.72;;;17.67;;
40863;SDS011;26582;47.524;19.012;2023-12-20T00:32:34;42.15;;;16.52;;
40863;SDS011;26582;47.524;19.012;2023-12-20T00:35:02;44.90;;;18.25;;
40863;SDS011;26582;47.524;19.012;2023-12-20T00:37:29;41.38;;;16.98;;
40863;SDS011;26582;47.524;19.012;2023-12-20T00:39:56;47.22;;;17.33;;
40863;SDS011;26582;47.524;19.012;2023-12-20T00:42:23;45.38;;;16.45;;
40863;SDS011;26582;47.524;19.012;2023-12-20T00:44:50;40.90;;;18.10;;
40863;SDS011;26582;47.524;19.012;2023-12-20T00:47:16;46.45;;;17.65;;
40863;SDS011;26582;47.524;19.012;2023-12-20T00:49:43;51.92;;;18.95;;
40863;SDS011;26582;47.524;19.012;2023-12-20T00:52:11;48.28;;;18.38;;
40863;SDS011;26582;47.524;19.012;2023-12-20T00:54:38;51.47;;;19.70;;
40863;SDS011;26582;47.524;19.012;2023-12-20T00:57:04;43.50;;;17.75;;
40863;SDS011;26582;47.524;19.012;2023-12-20T00:59:31;44.80;;;17.70;;
40863;SDS011;26582;47.524;19.012;2023-12-20T01:01:58;42.38;;;18.40;;
40863;SDS011;26582;47.524;19.012;2023-12-20T01:04:24;45.50;;;17.10;;
40863;SDS011;26582;47.524;19.012;2023-12-20T01:06:51;52.58;;;18.77;;
40863;SDS011;26582;47.524;19.012;2023-12-20T01:09:19;45.15;;;17.95;;
40863;SDS011;26582;47.524;19.012;2023-12-20T01:11:48;48.95;;;18.23;;
40863;SDS011;26582;47.524;19.012;2023-12-20T01:14:15;48.88;;;18.98;;
40863;SDS011;26582;47.524;19.012;2023-12-20T01:16:42;40.17;;;18.10;;
40863;SDS011;26582;47.524;19.012;2023-12-20T01:19:08;42.50;;;16.30;;
40863;SDS011;26582;47.524;19.012;2023-12-20T01:21:35;46.97;;;17.08;;
40863;SDS011;26582;47.524;19.012;2023-12-20T01:24:01;41.33;;;17.17;;
40863;SDS011;26582;47.524;19.012;2023-12-20T01:26:30;45.22;;;17.38;;
40863;SDS011;26582;47.524;19.012;2023-12-20T01:28:57;37.17;;;16.27;;
40863;SDS011;26582;47.524;19.012;2023-12-20T01:31:23;41.42;;;16.75;;
40863;SDS011;26582;47.524;19.012;2023-12-20T01:33:52;41.77;;;17.30;;
40863;SDS011;26582;47.524;19.012;2023-12-20T01:36:19;40.55;;;16.65;;
40863;SDS011;26582;47.524;19.012;2023-12-20T01:38:45;51.28;;;17.50;;
40863;SDS011;26582;47.524;19.012;2023-12-20T01:41:12;42.35;;;17.52;;
40863;SDS011;26582;47.524;19.012;2023-12-20T01:43:40;43.17;;;16.05;;
40863;SDS011;26582;47.524;19.012;2023-12-20T01:46:07;35.63;;;15.85;;
40863;SDS011;26582;47.524;19.012;2023-12-20T01:48:33;30.42;;;15.10;;
40863;SDS011;26582;47.524;19.012;2023-12-20T01:51:01;78.10;;;24.90;;
40863;SDS011;26582;47.524;19.012;2023-12-20T01:53:28;42.83;;;17.13;;
40863;SDS011;26582;47.524;19.012;2023-12-20T01:55:56;37.97;;;15.57;;
40863;SDS011;26582;47.524;19.012;2023-12-20T01:58:24;38.35;;;15.55;;
40863;SDS011;26582;47.524;19.012;2023-12-20T02:00:53;44.95;;;16.98;;
40863;SDS011;26582;47.524;19.012;2023-12-20T02:03:21;35.42;;;15.20;;
40863;SDS011;26582;47.524;19.012;2023-12-20T02:05:48;38.97;;;15.45;;
40863;SDS011;26582;47.524;19.012;2023-12-20T02:08:14;37.13;;;15.88;;
40863;SDS011;26582;47.524;19.012;2023-12-20T02:10:41;42.60;;;17.20;;
40863;SDS011;26582;47.524;19.012;2023-12-20T02:13:08;36.17;;;15.93;;
40863;SDS011;26582;47.524;19.012;2023-12-20T02:15:35;41.63;;;16.25;;
40863;SDS011;26582;47.524;19.012;2023-12-20T02:18:04;36.58;;;15.68;;
40863;SDS011;26582;47.524;19.012;2023-12-20T02:20:31;38.00;;;15.80;;
40863;SDS011;26582;47.524;19.012;2023-12-20T02:22:59;31.23;;;14.23;;
40863;SDS011;26582;47.524;19.012;2023-12-20T02:25:25;37.75;;;15.48;;
40863;SDS011;26582;47.524;19.012;2023-12-20T02:27:52;37.97;;;15.02;;
40863;SDS011;26582;47.524;19.012;2023-12-20T02:30:19;62.55;;;21.02;;
40863;SDS011;26582;47.524;19.012;2023-12-20T02:32:45;32.28;;;14.05;;
40863;SDS011;26582;47.524;19.012;2023-12-20T02:35:12;51.47;;;17.38;;
40863;SDS011;26582;47.524;19.012;2023-12-20T02:37:39;39.45;;;16.27;;
40863;SDS011;26582;47.524;19.012;2023-12-20T02:40:08;44.35;;;16.15;;
40863;SDS011;26582;47.524;19.012;2023-12-20T02:42:35;36.92;;;15.80;;
40863;SDS011;26582;47.524;19.012;2023-12-20T02:45:02;39.95;;;15.13;;
40863;SDS011;26582;47.524;19.012;2023-12-20T02:47:29;41.88;;;16.80;;
40863;SDS011;26582;47.524;19.012;2023-12-20T02:49:56;38.97;;;15.88;;
40863;SDS011;26582;47.524;19.012;2023-12-20T02:52:23;40.90;;;15.98;;
40863;SDS011;26582;47.524;19.012;2023-12-20T02:54:50;39.35;;;16.52;;
40863;SDS011;26582;47.524;19.012;2023-12-20T02:57:18;39.17;;;15.45;;
40863;SDS011;26582;47.524;19.012;2023-12-20T02:59:44;38.58;;;15.82;;
40863;SDS011;26582;47.524;19.012;2023-12-20T03:02:11;36.50;;;16.20;;
40863;SDS011;26582;47.524;19.012;2023-12-20T03:04:38;35.05;;;14.57;;
40863;SDS011;26582;47.524;19.012;2023-12-20T03:07:04;36.42;;;14.13;;
40863;SDS011;26582;47.524;19.012;2023-12-20T03:09:31;37.08;;;14.68;;
40863;SDS011;26582;47.524;19.012;2023-12-20T03:11:58;36.20;;;14.90;;
40863;SDS011;26582;47.524;19.012;2023-12-20T03:14:26;53.13;;;18.15;;
40863;SDS011;26582;47.524;19.012;2023-12-20T03:16:52;36.00;;;15.23;;
40863;SDS011;26582;47.524;19.012;2023-12-20T03:19:19;35.95;;;14.55;;
40863;SDS011;26582;47.524;19.012;2023-12-20T03:21:46;36.22;;;14.07;;
40863;SDS011;26582;47.524;19.012;2023-12-20T03:24:12;37.38;;;15.27;;
40863;SDS011;26582;47.524;19.012;2023-12-20T03:26:39;34.45;;;14.30;;
40863;SDS011;26582;47.524;19.012;2023-12-20T03:29:06;29.38;;;13.05;;
40863;SDS011;26582;47.524;19.012;2023-12-20T03:31:34;38.92;;;14.77;;
40863;SDS011;26582;47.524;19.012;2023-12-20T03:34:00;33.00;;;13.63;;
40863;SDS011;26582;47.524;19.012;2023-12-20T03:36:27;51.25;;;17.05;;
40863;SDS011;26582;47.524;19.012;2023-12-20T03:38:54;35.28;;;14.80;;
40863;SDS011;26582;47.524;19.012;2023-12-20T03:41:20;33.15;;;13.65;;
40863;SDS011;26582;47.524;19.012;2023-12-20T03:43:47;37.42;;;14.95;;
40863;SDS011;26582;47.524;19.012;2023-12-20T03:46:13;44.20;;;16.02;;
40863;SDS011;26582;47.524;19.012;2023-12-20T03:48:41;40.58;;;15.20;;
40863;SDS011;26582;47.524;19.012;2023-12-20T03:51:08;34.03;;;14.38;;
40863;SDS011;26582;47.524;19.012;2023-12-20T03:53:35;31.65;;;14.70;;
40863;SDS011;26582;47.524;19.012;2023-12-20T03:56:01;39.65;;;15.52;;
40863;SDS011;26582;47.524;19.012;2023-12-20T03:58:28;28.90;;;13.13;;
40863;SDS011;26582;47.524;19.012;2023-12-20T04:00:55;31.00;;;14.32;;
40863;SDS011;26582;47.524;19.012;2023-12-20T04:03:22;35.30;;;14.07;;
40863;SDS011;26582;47.524;19.012;2023-12-20T04:05:50;35.78;;;14.43;;
40863;SDS011;26582;47.524;19.012;2023-12-20T04:08:16;33.17;;;13.63;;
40863;SDS011;26582;47.524;19.012;2023-12-20T04:10:43;33.38;;;13.85;;
40863;SDS011;26582;47.524;19.012;2023-12-20T04:13:10;32.50;;;14.18;;
40863;SDS011;26582;47.524;19.012;2023-12-20T04:15:36;34.35;;;13.40;;
40863;SDS011;26582;47.524;19.012;2023-12-20T04:18:03;31.48;;;13.52;;
40863;SDS011;26582;47.524;19.012;2023-12-20T04:20:30;35.95;;;15.52;;
40863;SDS011;26582;47.524;19.012;2023-12-20T04:22:58;32.55;;;13.38;;
40863;SDS011;26582;47.524;19.012;2023-12-20T04:25:25;31.60;;;13.35;;
40863;SDS011;26582;47.524;19.012;2023-12-20T04:27:52;33.95;;;13.63;;
40863;SDS011;26582;47.524;19.012;2023-12-20T04:30:18;35.08;;;14.50;;
40863;SDS011;26582;47.524;19.012;2023-12-20T04:32:45;31.55;;;14.18;;
40863;SDS011;26582;47.524;19.012;2023-12-20T04:35:11;34.13;;;14.45;;
40863;SDS011;26582;47.524;19.012;2023-12-20T04:37:37;33.95;;;15.57;;
40863;SDS011;26582;47.524;19.012;2023-12-20T04:40:06;41.55;;;17.27;;
40863;SDS011;26582;47.524;19.012;2023-12-20T04:42:34;39.75;;;16.42;;
40863;SDS011;26582;47.524;19.012;2023-12-20T04:45:00;36.05;;;15.25;;
40863;SDS011;26582;47.524;19.012;2023-12-20T04:47:28;48.65;;;17.98;;
40863;SDS011;26582;47.524;19.012;2023-12-20T04:49:54;31.05;;;12.93;;
40863;SDS011;26582;47.524;19.012;2023-12-20T04:52:21;32.33;;;15.45;;
40863;SDS011;26582;47.524;19.012;2023-12-20T04:54:48;36.75;;;14.73;;
40863;SDS011;26582;47.524;19.012;2023-12-20T04:57:16;35.35;;;14.63;;
40863;SDS011;26582;47.524;19.012;2023-12-20T04:59:43;33.47;;;13.73;;
40863;SDS011;26582;47.524;19.012;2023-12-20T05:02:09;35.47;;;15.00;;
40863;SDS011;26582;47.524;19.012;2023-12-20T05:04:36;33.85;;;13.35;;
40863;SDS011;26582;47.524;19.012;2023-12-20T05:07:03;35.28;;;16.10;;
40863;SDS011;26582;47.524;19.012;2023-12-20T05:09:31;34.20;;;15.45;;
40863;SDS011;26582;47.524;19.012;2023-12-20T05:11:58;31.52;;;14.30;;
40863;SDS011;26582;47.524;19.012;2023-12-20T05:14:25;36.53;;;15.77;;
40863;SDS011;26582;47.524;19.012;2023-12-20T05:16:52;35.38;;;15.32;;
40863;SDS011;26582;47.524;19.012;2023-12-20T05:19:18;39.63;;;16.08;;
40863;SDS011;26582;47.524;19.012;2023-12-20T05:21:45;32.33;;;15.55;;
40863;SDS011;26582;47.524;19.012;2023-12-20T05:24:12;33.78;;;13.90;;
40863;SDS011;26582;47.524;19.012;2023-12-20T05:26:38;39.17;;;15.43;;
40863;SDS011;26582;47.524;19.012;2023-12-20T05:29:05;41.03;;;15.65;;
40863;SDS011;26582;47.524;19.012;2023-12-20T05:31:33;37.42;;;16.05;;
40863;SDS011;26582;47.524;19.012;2023-12-20T05:33:59;27.48;;;12.48;;
40863;SDS011;26582;47.524;19.012;2023-12-20T05:36:26;33.42;;;15.73;;
40863;SDS011;26582;47.524;19.012;2023-12-20T05:38:53;36.67;;;16.95;;
40863;SDS011;26582;47.524;19.012;2023-12-20T05:41:20;24.02;;;10.98;;
40863;SDS011;26582;47.524;19.012;2023-12-20T05:43:48;31.35;;;15.13;;
40863;SDS011;26582;47.524;19.012;2023-12-20T05:46:14;24.83;;;12.60;;
40863;SDS011;26582;47.524;19.012;2023-12-20T05:48:42;39.13;;;17.05;;
40863;SDS011;26582;47.524;19.012;2023-12-20T05:51:11;36.13;;;15.55;;
40863;SDS011;26582;47.524;19.012;2023-12-20T05:53:38;34.90;;;16.50;;
40863;SDS011;26582;47.524;19.012;2023-12-20T05:56:05;35.60;;;16.77;;
40863;SDS011;26582;47.524;19.012;2023-12-20T05:58:32;10.18;;;6.68;;
40863;SDS011;26582;47.524;19.012;2023-12-20T06:00:58;35.60;;;15.65;;
40863;SDS011;26582;47.524;19.012;2023-12-20T06:03:25;29.90;;;14.80;;
40863;SDS011;26582;47.524;19.012;2023-12-20T06:05:53;35.10;;;14.30;;
40863;SDS011;26582;47.524;19.012;2023-12-20T06:08:19;41.53;;;17.73;;
40863;SDS011;26582;47.524;19.012;2023-12-20T06:10:46;43.67;;;18.02;;
40863;SDS011;26582;47.524;19.012;2023-12-20T06:13:13;49.20;;;17.30;;
40863;SDS011;26582;47.524;19.012;2023-12-20T06:15:39;37.28;;;16.40;;
40863;SDS011;26582;47.524;19.012;2023-12-20T06:18:06;35.58;;;16.95;;
40863;SDS011;26582;47.524;19.012;2023-12-20T06:20:33;38.10;;;17.50;;
40863;SDS011;26582;47.524;19.012;2023-12-20T06:23:01;44.08;;;17.75;;
40863;SDS011;26582;47.524;19.012;2023-12-20T06:25:27;40.53;;;16.42;;
40863;SDS011;26582;47.524;19.012;2023-12-20T06:27:54;40.17;;;18.13;;
40863;SDS011;26582;47.524;19.012;2023-12-20T06:30:21;36.90;;;15.15;;
40863;SDS011;26582;47.524;19.012;2023-12-20T06:32:48;22.48;;;9.80;;
40863;SDS011;26582;47.524;19.012;2023-12-20T06:35:14;54.05;;;18.15;;
40863;SDS011;26582;47.524;19.012;2023-12-20T06:37:41;49.17;;;19.38;;
40863;SDS011;26582;47.524;19.012;2023-12-20T06:40:10;44.47;;;18.15;;
40863;SDS011;26582;47.524;19.012;2023-12-20T06:42:37;41.33;;;16.42;;
40863;SDS011;26582;47.524;19.012;2023-12-20T06:45:04;51.33;;;18.80;;
40863;SDS011;26582;47.524;19.012;2023-12-20T06:47:31;40.85;;;18.27;;
40863;SDS011;26582;47.524;19.012;2023-12-20T06:49:58;47.22;;;18.77;;
40863;SDS011;26582;47.524;19.012;2023-12-20T06:52:25;40.53;;;18.52;;
40863;SDS011;26582;47.524;19.012;2023-12-20T06:54:52;43.88;;;18.92;;
40863;SDS011;26582;47.524;19.012;2023-12-20T06:57:20;49.70;;;19.90;;
40863;SDS011;26582;47.524;19.012;2023-12-20T06:59:47;47.22;;;19.02;;
40863;SDS011;26582;47.524;19.012;2023-12-20T07:02:13;43.05;;;19.10;;
40863;SDS011;26582;47.524;19.012;2023-12-20T07:04:40;44.63;;;19.23;;
40863;SDS011;26582;47.524;19.012;2023-12-20T07:07:07;51.58;;;20.63;;
40863;SDS011;26582;47.524;19.012;2023-12-20T07:09:34;52.72;;;20.70;;
40863;SDS011;26582;47.524;19.012;2023-12-20T07:12:01;49.63;;;19.20;;
40863;SDS011;26582;47.524;19.012;2023-12-20T07:14:31;46.20;;;18.55;;
40863;SDS011;26582;47.524;19.012;2023-12-20T07:16:57;46.70;;;18.65;;
40863;SDS011;26582;47.524;19.012;2023-12-20T07:19:24;45.20;;;18.58;;
40863;SDS011;26582;47.524;19.012;2023-12-20T07:21:51;48.28;;;19.10;;
40863;SDS011;26582;47.524;19.012;2023-12-20T07:24:18;45.28;;;17.40;;
40863;SDS011;26582;47.524;19.012;2023-12-20T07:26:45;39.92;;;16.75;;
40863;SDS011;26582;47.524;19.012;2023-12-20T07:29:11;45.97;;;18.15;;
40863;SDS011;26582;47.524;19.012;2023-12-20T07:31:39;40.58;;;16.10;;
40863;SDS011;26582;47.524;19.012;2023-12-20T07:34:06;46.45;;;18.20;;
40863;SDS011;26582;47.524;19.012;2023-12-20T07:36:33;46.55;;;19.20;;
40863;SDS011;26582;47.524;19.012;2023-12-20T07:39:00;43.80;;;18.35;;
40863;SDS011;26582;47.524;19.012;2023-12-20T07:41:26;45.78;;;17.15;;
40863;SDS011;26582;47.524;19.012;2023-12-20T07:43:53;39.47;;;16.75;;
40863;SDS011;26582;47.524;19.012;2023-12-20T07:46:21;42.42;;;18.70;;
40863;SDS011;26582;47.524;19.012;2023-12-20T07:48:50;50.55;;;18.85;;
40863;SDS011;26582;47.524;19.012;2023-12-20T07:51:16;49.45;;;19.35;;
40863;SDS011;26582;47.524;19.012;2023-12-20T07:53:43;49.78;;;18.15;;
40863;SDS011;26582;47.524;19.012;2023-12-20T07:56:13;56.05;;;17.77;;
40863;SDS011;26582;47.524;19.012;2023-12-20T07:58:41;23.20;;;11.75;;
40863;SDS011;26582;47.524;19.012;2023-12-20T08:01:08;36.75;;;17.50;;
40863;SDS011;26582;47.524;19.012;2023-12-20T08:03:34;45.38;;;18.27;;
40863;SDS011;26582;47.524;19.012;2023-12-20T08:06:03;43.15;;;17.48;;
40863;SDS011;26582;47.524;19.012;2023-12-20T08:08:30;47.40;;;19.95;;
40863;SDS011;26582;47.524;19.012;2023-12-20T08:10:57;43.95;;;18.38;;
40863;SDS011;26582;47.524;19.012;2023-12-20T08:13:25;42.28;;;17.80;;
40863;SDS011;26582;47.524;19.012;2023-12-20T08:15:52;47.13;;;20.27;;
40863;SDS011;26582;47.524;19.012;2023-12-20T08:18:19;42.88;;;18.92;;
40863;SDS011;26582;47.524;19.012;2023-12-20T08:20:46;60.70;;;20.50;;
40863;SDS011;26582;47.524;19.012;2023-12-20T08:23:15;50.83;;;20.35;;
40863;SDS011;26582;47.524;19.012;2023-12-20T08:25:41;46.78;;;19.42;;
40863;SDS011;26582;47.524;19.012;2023-12-20T08:28:08;47.72;;;20.65;;
40863;SDS011;26582;47.524;19.012;2023-12-20T08:30:35;51.80;;;20.98;;
40863;SDS011;26582;47.524;19.012;2023-12-20T08:33:01;45.40;;;18.63;;
40863;SDS011;26582;47.524;19.012;2023-12-20T08:35:28;22.98;;;12.35;;
40863;SDS011;26582;47.524;19.012;2023-12-20T08:37:56;52.28;;;21.02;;
40863;SDS011;26582;47.524;19.012;2023-12-20T08:40:24;47.28;;;20.55;;
40863;SDS011;26582;47.524;19.012;2023-12-20T08:42:50;36.70;;;16.33;;
40863;SDS011;26582;47.524;19.012;2023-12-20T08:45:17;43.08;;;18.52;;
40863;SDS011;26582;47.524;19.012;2023-12-20T08:47:44;39.08;;;17.40;;
40863;SDS011;26582;47.524;19.012;2023-12-20T08:50:10;42.92;;;19.08;;
40863;SDS011;26582;47.524;19.012;2023-12-20T08:52:37;48.97;;;20.52;;
40863;SDS011;26582;47.524;19.012;2023-12-20T08:55:04;44.10;;;20.10;;
40863;SDS011;26582;47.524;19.012;2023-12-20T08:57:33;44.35;;;20.10;;
40863;SDS011;26582;47.524;19.012;2023-12-20T09:00:00;49.58;;;20.45;;
40863;SDS011;26582;47.524;19.012;2023-12-20T09:02:27;52.38;;;24.27;;
40863;SDS011;26582;47.524;19.012;2023-12-20T09:04:54;54.50;;;22.50;;
40863;SDS011;26582;47.524;19.012;2023-12-20T09:07:21;54.97;;;21.83;;
40863;SDS011;26582;47.524;19.012;2023-12-20T09:09:48;54.22;;;21.85;;
40863;SDS011;26582;47.524;19.012;2023-12-20T09:12:15;55.08;;;21.73;;
40863;SDS011;26582;47.524;19.012;2023-12-20T09:14:43;50.10;;;22.80;;
40863;SDS011;26582;47.524;19.012;2023-12-20T09:17:09;59.15;;;24.05;;
40863;SDS011;26582;47.524;19.012;2023-12-20T09:19:37;54.10;;;23.15;;
40863;SDS011;26582;47.524;19.012;2023-12-20T09:22:04;55.72;;;23.23;;
40863;SDS011;26582;47.524;19.012;2023-12-20T09:24:31;57.22;;;22.92;;
40863;SDS011;26582;47.524;19.012;2023-12-20T09:26:57;61.88;;;22.98;;
40863;SDS011;26582;47.524;19.012;2023-12-20T09:29:24;56.55;;;22.35;;
40863;SDS011;26582;47.524;19.012;2023-12-20T09:31:52;52.65;;;21.73;;
40863;SDS011;26582;47.524;19.012;2023-12-20T09:34:19;55.40;;;22.30;;
40863;SDS011;26582;47.524;19.012;2023-12-20T09:36:46;56.25;;;23.60;;
40863;SDS011;26582;47.524;19.012;2023-12-20T09:39:13;52.60;;;22.02;;
40863;SDS011;26582;47.524;19.012;2023-12-20T09:41:41;56.42;;;22.40;;
40863;SDS011;26582;47.524;19.012;2023-12-20T09:44:13;55.90;;;21.27;;
40863;SDS011;26582;47.524;19.012;2023-12-20T09:46:46;59.53;;;22.13;;
40863;SDS011;26582;47.524;19.012;2023-12-20T09:49:18;66.80;;;25.70;;
40863;SDS011;26582;47.524;19.012;2023-12-20T09:51:45;61.00;;;24.88;;
40863;SDS011;26582;47.524;19.012;2023-12-20T09:54:12;54.88;;;22.88;;
40863;SDS011;26582;47.524;19.012;2023-12-20T09:56:40;62.13;;;24.38;;
40863;SDS011;26582;47.524;19.012;2023-12-20T09:59:07;62.30;;;23.95;;
40863;SDS011;26582;47.524;19.012;2023-12-20T10:01:33;67.15;;;23.95;;
40863;SDS011;26582;47.524;19.012;2023-12-20T10:04:00;57.03;;;26.40;;
40863;SDS011;26582;47.524;19.012;2023-12-20T10:06:33;64.85;;;25.08;;
40863;SDS011;26582;47.524;19.012;2023-12-20T10:09:00;53.47;;;21.45;;
40863;SDS011;26582;47.524;19.012;2023-12-20T10:11:27;62.10;;;23.50;;
40863;SDS011;26582;47.524;19.012;2023-12-20T10:13:58;21.10;;;9.25;;
40863;SDS011;26582;47.524;19.012;2023-12-20T10:16:26;40.10;;;17.23;;
40863;SDS011;26582;47.524;19.012;2023-12-20T10:18:53;32.10;;;13.00;;
40863;SDS011;26582;47.524;19.012;2023-12-20T10:21:20;25.52;;;12.10;;
40863;SDS011;26582;47.524;19.012;2023-12-20T10:23:48;13.52;;;6.80;;
40863;SDS011;26582;47.524;19.012;2023-12-20T10:26:18;21.35;;;10.98;;
40863;SDS011;26582;47.524;19.012;2023-12-20T10:28:45;21.67;;;10.43;;
40863;SDS011;26582;47.524;19.012;2023-12-20T10:31:20;16.67;;;9.30;;
40863;SDS011;26582;47.524;19.012;2023-12-20T10:33:52;17.27;;;9.43;;
40863;SDS011;26582;47.524;19.012;2023-12-20T10:36:19;15.80;;;8.20;;
40863;SDS011;26582;47.524;19.012;2023-12-20T10:38:48;15.90;;;8.02;;
40863;SDS011;26582;47.524;19.012;2023-12-20T10:41:18;16.77;;;8.50;;
40863;SDS011;26582;47.524;19.012;2023-12-20T10:43:50;13.80;;;8.05;;
40863;SDS011;26582;47.524;19.012;2023-12-20T10:46:18;14.75;;;7.90;;
40863;SDS011;26582;47.524;19.012;2023-12-20T10:48:45;18.80;;;9.60;;
40863;SDS011;26582;47.524;19.012;2023-12-20T10:51:12;17.13;;;8.63;;
40863;SDS011;26582;47.524;19.012;2023-12-20T10:53:43;25.52;;;11.52;;
40863;SDS011;26582;47.524;19.012;2023-12-20T10:56:15;28.37;;;12.77;;
40863;SDS011;26582;47.524;19.012;2023-12-20T10:58:43;21.10;;;11.10;;
40863;SDS011;26582;47.524;19.012;2023-12-20T11:01:12;21.15;;;11.43;;
40863;SDS011;26582;47.524;19.012;2023-12-20T11:03:39;23.85;;;11.27;;
40863;SDS011;26582;47.524;19.012;2023-12-20T11:06:10;23.80;;;10.88;;
40863;SDS011;26582;47.524;19.012;2023-12-20T11:08:46;17.63;;;8.23;;
40863;SDS011;26582;47.524;19.012;2023-12-20T11:11:20;7.97;;;4.32;;
40863;SDS011;26582;47.524;19.012;2023-12-20T11:13:53;26.52;;;12.77;;
40863;SDS011;26582;47.524;19.012;2023-12-20T11:16:23;15.82;;;8.90;;
40863;SDS011;26582;47.524;19.012;2023-12-20T11:18:50;15.35;;;7.47;;
40863;SDS011;26582;47.524;19.012;2023-12-20T11:21:17;11.90;;;6.53;;
40863;SDS011;26582;47.524;19.012;2023-12-20T11:23:44;11.40;;;6.03;;
40863;SDS011;26582;47.524;19.012;2023-12-20T11:26:12;13.65;;;7.32;;
40863;SDS011;26582;47.524;19.012;2023-12-20T11:28:43;11.43;;;6.28;;
40863;SDS011;26582;47.524;19.012;2023-12-20T11:31:10;12.02;;;6.32;;
40863;SDS011;26582;47.524;19.012;2023-12-20T11:33:40;9.90;;;6.28;;
40863;SDS011;26582;47.524;19.012;2023-12-20T11:36:12;8.45;;;5.32;;
40863;SDS011;26582;47.524;19.012;2023-12-20T11:38:49;10.45;;;5.72;;
40863;SDS011;26582;47.524;19.012;2023-12-20T11:41:22;11.02;;;6.10;;
40863;SDS011;26582;47.524;19.012;2023-12-20T11:43:51;11.73;;;5.60;;
40863;SDS011;26582;47.524;19.012;2023-12-20T11:46:19;9.88;;;6.30;;
40863;SDS011;26582;47.524;19.012;2023-12-20T11:48:46;8.63;;;5.65;;
40863;SDS011;26582;47.524;19.012;2023-12-20T11:51:14;8.40;;;5.47;;
40863;SDS011;26582;47.524;19.012;2023-12-20T11:53:41;9.30;;;5.60;;
40863;SDS011;26582;47.524;19.012;2023-12-20T11:56:08;8.98;;;5.32;;
40863;SDS011;26582;47.524;19.012;2023-12-20T11:58:36;9.85;;;5.22;;
40863;SDS011;26582;47.524;19.012;2023-12-20T12:01:04;9.70;;;5.40;;
40863;SDS011;26582;47.524;19.012;2023-12-20T12:03:32;9.23;;;5.38;;
40863;SDS011;26582;47.524;19.012;2023-12-20T12:05:59;9.70;;;6.03;;
40863;SDS011;26582;47.524;19.012;2023-12-20T12:08:26;11.98;;;5.75;;
40863;SDS011;26582;47.524;19.012;2023-12-20T12:10:52;11.15;;;6.30;;
40863;SDS011;26582;47.524;19.012;2023-12-20T12:13:19;13.43;;;6.68;;
40863;SDS011;26582;47.524;19.012;2023-12-20T12:15:47;10.60;;;6.38;;
40863;SDS011;26582;47.524;19.012;2023-12-20T12:18:16;10.55;;;6.10;;
40863;SDS011;26582;47.524;19.012;2023-12-20T12:20:44;12.73;;;7.18;;
40863;SDS011;26582;47.524;19.012;2023-12-20T12:23:11;9.68;;;5.55;;
40863;SDS011;26582;47.524;19.012;2023-12-20T12:25:37;11.05;;;6.93;;
40863;SDS011;26582;47.524;19.012;2023-12-20T12:28:04;11.93;;;7.68;;
40863;SDS011;26582;47.524;19.012;2023-12-20T12:30:32;12.55;;;7.05;;
40863;SDS011;26582;47.524;19.012;2023-12-20T12:32:58;10.57;;;6.05;;
40863;SDS011;26582;47.524;19.012;2023-12-20T12:35:26;12.82;;;7.15;;
40863;SDS011;26582;47.524;19.012;2023-12-20T12:37:53;13.23;;;8.05;;
40863;SDS011;26582;47.524;19.012;2023-12-20T12:40:20;12.45;;;7.63;;
40863;SDS011;26582;47.524;19.012;2023-12-20T12:42:46;15.68;;;7.93;;
40863;SDS011;26582;47.524;19.012;2023-12-20T12:45:13;15.85;;;7.80;;
40863;SDS011;26582;47.524;19.012;2023-12-20T12:47:40;12.43;;;7.25;;
40863;SDS011;26582;47.524;19.012;2023-12-20T12:50:07;13.65;;;7.03;;
40863;SDS011;26582;47.524;19.012;2023-12-20T12:52:36;14.48;;;8.38;;
40863;SDS011;26582;47.524;19.012;2023-12-20T12:55:04;14.52;;;8.25;;
40863;SDS011;26582;47.524;19.012;2023-12-20T12:57:31;13.20;;;7.78;;
40863;SDS011;26582;47.524;19.012;2023-12-20T12:59:59;15.55;;;8.65;;
40863;SDS011;26582;47.524;19.012;2023-12-20T13:02:26;15.10;;;8.15;;
40863;SDS011;26582;47.524;19.012;2023-12-20T13:04:52;13.93;;;7.28;;
40863;SDS011;26582;47.524;19.012;2023-12-20T13:07:19;16.77;;;8.50;;
40863;SDS011;26582;47.524;19.012;2023-12-20T13:09:47;16.20;;;8.65;;
40863;SDS011;26582;47.524;19.012;2023-12-20T13:12:14;15.77;;;8.57;;
40863;SDS011;26582;47.524;19.012;2023-12-20T13:14:40;16.55;;;8.77;;
40863;SDS011;26582;47.524;19.012;2023-12-20T13:17:07;17.20;;;9.07;;
40863;SDS011;26582;47.524;19.012;2023-12-20T13:19:34;14.52;;;8.25;;
40863;SDS011;26582;47.524;19.012;2023-12-20T13:22:00;15.43;;;8.35;;
40863;SDS011;26582;47.524;19.012;2023-12-20T13:24:27;13.80;;;8.55;;
40863;SDS011;26582;47.524;19.012;2023-12-20T13:26:55;16.02;;;8.68;;
40863;SDS011;26582;47.524;19.012;2023-12-20T13:29:22;13.15;;;7.97;;
40863;SDS011;26582;47.524;19.012;2023-12-20T13:34:19;15.23;;;8.00;;
40863;SDS011;26582;47.524;19.012;2023-12-20T13:36:46;17.63;;;9.48;;
40863;SDS011;26582;47.524;19.012;2023-12-20T13:39:15;18.58;;;9.27;;
40863;SDS011;26582;47.524;19.012;2023-12-20T13:41:43;21.15;;;10.07;;
40863;SDS011;26582;47.524;19.012;2023-12-20T13:44:11;18.27;;;9.60;;
40863;SDS011;26582;47.524;19.012;2023-12-20T13:46:38;16.48;;;8.75;;
40863;SDS011;26582;47.524;19.012;2023-12-20T13:49:06;20.70;;;10.82;;
40863;SDS011;26582;47.524;19.012;2023-12-20T13:51:32;17.88;;;9.02;;
40863;SDS011;26582;47.524;19.012;2023-12-20T13:53:59;16.30;;;9.50;;
40863;SDS011;26582;47.524;19.012;2023-12-20T13:56:26;18.23;;;9.32;;
40863;SDS011;26582;47.524;19.012;2023-12-20T13:58:53;16.42;;;8.57;;
40863;SDS011;26582;47.524;19.012;2023-12-20T14:01:24;14.18;;;7.95;;
40863;SDS011;26582;47.524;19.012;2023-12-20T14:03:51;10.23;;;5.50;;
40863;SDS011;26582;47.524;19.012;2023-12-20T14:06:18;19.23;;;9.32;;
40863;SDS011;26582;47.524;19.012;2023-12-20T14:08:45;17.50;;;8.68;;
40863;SDS011;26582;47.524;19.012;2023-12-20T14:11:11;14.82;;;9.02;;
40863;SDS011;26582;47.524;19.012;2023-12-20T14:13:40;16.48;;;8.95;;
40863;SDS011;26582;47.524;19.012;2023-12-20T14:16:08;17.63;;;9.52;;